Time;durP1;ratioP1;P1;durP2;ratioP2;P2;SDS_P1;SDS_P2;PMS_P1;PMS_P2;Temp;Humidity;BMP_temperature;BMP_pressure;BME280_temperature;BME280_humidity;BME280_pressure;Samples;Min_cycle;Max_cycle;Signal;HPM_P1;HPM_P2
2022/01/21 00:00:13;;;;;;;2.03;1.00;;;;;;;;;;5071994;28;20471;-73
2022/01/21 00:02:40;;;;;;;4.60;1.77;;;;;;;;;;5073454;28;21086;-73
2022/01/21 00:05:09;;;;;;;1.90;0.87;;;;;;;;;;5077826;28;20812;-74
2022/01/21 00:07:42;;;;;;;13.10;3.17;;;;;;;;;;5077203;28;20900;-74
2022/01/21 00:10:11;;;;;;;2.30;0.93;;;;;;;;;;5078015;28;20533;-73
2022/01/21 00:12:39;;;;;;;2.67;1.13;;;;;;;;;;5077710;28;20460;-73
2022/01/21 00:15:08;;;;;;;2.77;0.80;;;;;;;;;;5077338;28;20456;-73
2022/01/21 00:17:40;;;;;;;2.10;1.33;;;;;;;;;;5072560;28;20467;-74
2022/01/21 00:31:13;;;;;;;1.93;0.97;;;;;;;;;;5076954;28;20304;-73
2022/01/21 00:33:50;;;;;;;8.43;2.50;;;;;;;;;;5076637;28;20460;-73
2022/01/21 00:36:17;;;;;;;3.47;1.40;;;;;;;;;;5077085;28;20241;-73
2022/01/21 00:38:45;;;;;;;4.40;0.90;;;;;;;;;;5077020;28;20932;-73
2022/01/21 00:41:20;;;;;;;2.63;1.03;;;;;;;;;;5075975;28;20468;-73
2022/01/21 00:43:48;;;;;;;1.97;0.90;;;;;;;;;;5076606;28;20473;-73
2022/01/21 00:46:15;;;;;;;2.27;0.90;;;;;;;;;;5076825;28;20488;-73
2022/01/21 00:48:47;;;;;;;2.87;1.10;;;;;;;;;;5076720;28;20460;-73
2022/01/21 00:51:15;;;;;;;2.63;1.00;;;;;;;;;;5076287;28;20559;-73
2022/01/21 00:53:43;;;;;;;4.23;1.00;;;;;;;;;;5076625;28;20488;-73
2022/01/21 00:56:12;;;;;;;9.33;1.60;;;;;;;;;;5076235;28;20460;-73
2022/01/21 00:58:40;;;;;;;1.75;0.73;;;;;;;;;;5077068;28;20521;-73
2022/01/21 01:01:08;;;;;;;6.10;1.30;;;;;;;;;;5079129;28;20259;-73
2022/01/21 01:03:36;;;;;;;1.40;0.80;;;;;;;;;;5079752;28;20475;-73
2022/01/21 01:06:05;;;;;;;1.90;1.13;;;;;;;;;;5080724;28;20465;-73
2022/01/21 01:08:33;;;;;;;2.30;1.50;;;;;;;;;;5080360;28;20221;-73
2022/01/21 01:11:17;;;;;;;3.13;1.20;;;;;;;;;;5080359;28;20487;-73
2022/01/21 01:22:04;;;;;;;1.93;0.80;;;;;;;;;;5079012;28;20205;-73
2022/01/21 01:30:02;;;;;;;2.67;1.45;;;;;;;;;;5079479;28;20856;-73
2022/01/21 01:32:30;;;;;;;2.70;1.10;;;;;;;;;;5072265;28;20213;-73
2022/01/21 01:34:58;;;;;;;4.00;1.17;;;;;;;;;;5080503;28;20491;-73
2022/01/21 01:37:49;;;;;;;4.67;1.13;;;;;;;;;;5080322;28;20653;-74
2022/01/21 01:40:23;;;;;;;6.33;1.90;;;;;;;;;;5077203;28;20515;-73
2022/01/21 01:51:08;;;;;;;6.27;1.10;;;;;;;;;;5059794;28;20298;-73
2022/01/21 01:53:39;;;;;;;3.27;1.60;;;;;;;;;;5060297;28;20539;-73
2022/01/21 01:56:08;;;;;;;2.40;0.93;;;;;;;;;;5059569;28;20887;-73
2022/01/21 01:58:37;;;;;;;2.83;1.10;;;;;;;;;;5059192;28;20468;-73
2022/01/21 02:01:05;;;;;;;2.33;1.53;;;;;;;;;;5059911;28;20869;-73
2022/01/21 02:03:32;;;;;;;1.80;1.20;;;;;;;;;;5059684;28;20929;-74
2022/01/21 02:06:00;;;;;;;4.10;1.77;;;;;;;;;;5059886;28;20745;-73
2022/01/21 02:08:31;;;;;;;1.67;0.97;;;;;;;;;;5059793;28;20217;-73
2022/01/21 02:11:03;;;;;;;4.37;1.50;;;;;;;;;;5059018;28;20576;-73
2022/01/21 02:13:34;;;;;;;1.47;0.77;;;;;;;;;;5059604;28;20465;-73
2022/01/21 02:16:06;;;;;;;4.05;0.88;;;;;;;;;;5062780;28;20448;-73
2022/01/21 02:21:39;;;;;;;6.13;3.17;;;;;;;;;;5058817;28;20449;-73
2022/01/21 02:24:09;;;;;;;8.90;1.20;;;;;;;;;;5060584;28;20499;-73
2022/01/21 02:26:37;;;;;;;1.87;1.17;;;;;;;;;;5061415;28;20546;-74
2022/01/21 02:29:05;;;;;;;4.07;1.47;;;;;;;;;;5058726;28;20573;-72
2022/01/21 02:31:33;;;;;;;2.90;1.67;;;;;;;;;;5058813;28;20837;-73
2022/01/21 02:34:02;;;;;;;2.40;1.07;;;;;;;;;;5072154;28;20883;-74
2022/01/21 02:36:31;;;;;;;7.70;1.50;;;;;;;;;;5078943;28;20495;-74
2022/01/21 02:38:58;;;;;;;3.17;1.27;;;;;;;;;;5078797;28;20254;-74
2022/01/21 02:41:26;;;;;;;2.17;1.20;;;;;;;;;;5078929;28;20480;-73
2022/01/21 02:43:54;;;;;;;5.90;1.00;;;;;;;;;;5062008;28;20507;-73
2022/01/21 02:46:23;;;;;;;5.57;1.45;;;;;;;;;;5060748;28;20871;-73
2022/01/21 02:48:51;;;;;;;4.93;2.20;;;;;;;;;;5059204;28;20202;-73
2022/01/21 02:51:19;;;;;;;2.37;1.80;;;;;;;;;;5077477;28;20468;-73
2022/01/21 02:54:06;;;;;;;3.90;1.55;;;;;;;;;;5079351;28;20562;-73
2022/01/21 02:56:35;;;;;;;4.87;1.37;;;;;;;;;;5079001;28;20234;-74
2022/01/21 02:59:03;;;;;;;2.27;1.57;;;;;;;;;;5078587;28;20465;-74
2022/01/21 03:01:34;;;;;;;11.90;1.60;;;;;;;;;;5078813;28;20467;-74
2022/01/21 03:04:02;;;;;;;4.93;1.60;;;;;;;;;;5078618;28;20214;-74
2022/01/21 03:06:30;;;;;;;2.65;1.75;;;;;;;;;;5078604;28;20464;-74
2022/01/21 03:08:59;;;;;;;6.07;1.40;;;;;;;;;;5078777;28;20221;-74
2022/01/21 03:11:28;;;;;;;5.75;1.92;;;;;;;;;;5078440;28;20503;-73
2022/01/21 03:13:56;;;;;;;3.80;1.70;;;;;;;;;;5078431;28;20286;-73
2022/01/21 03:16:24;;;;;;;4.00;1.50;;;;;;;;;;5078063;28;20619;-74
2022/01/21 03:18:52;;;;;;;2.83;1.63;;;;;;;;;;5078413;28;20529;-74
2022/01/21 03:21:19;;;;;;;3.58;2.22;;;;;;;;;;5078072;28;20242;-74
2022/01/21 03:23:48;;;;;;;5.13;1.53;;;;;;;;;;5078414;28;20238;-74
2022/01/21 03:26:19;;;;;;;5.37;2.27;;;;;;;;;;5078144;28;20860;-74
2022/01/21 03:28:48;;;;;;;5.93;1.50;;;;;;;;;;5077815;28;20492;-74
2022/01/21 03:31:16;;;;;;;8.57;2.73;;;;;;;;;;5078326;28;20461;-74
2022/01/21 03:33:44;;;;;;;4.53;2.20;;;;;;;;;;5078038;28;20515;-74
2022/01/21 03:36:12;;;;;;;5.93;1.73;;;;;;;;;;5078333;28;20791;-73
2022/01/21 03:38:40;;;;;;;5.33;1.50;;;;;;;;;;5077786;28;20517;-72
2022/01/21 03:41:08;;;;;;;6.40;1.30;;;;;;;;;;5078331;28;20468;-73
2022/01/21 03:43:37;;;;;;;3.40;1.83;;;;;;;;;;5077043;28;20537;-73
2022/01/21 03:46:06;;;;;;;4.55;1.23;;;;;;;;;;5078207;28;20567;-73
2022/01/21 03:48:34;;;;;;;3.73;1.50;;;;;;;;;;5078325;28;20295;-73
2022/01/21 03:51:02;;;;;;;1.87;1.20;;;;;;;;;;5078672;28;20452;-74
2022/01/21 03:53:30;;;;;;;3.60;1.40;;;;;;;;;;5078659;28;20880;-73
2022/01/21 03:55:58;;;;;;;5.53;2.80;;;;;;;;;;5078483;28;20521;-73
2022/01/21 03:58:28;;;;;;;6.57;2.37;;;;;;;;;;5078361;28;20899;-73
2022/01/21 04:00:57;;;;;;;17.57;1.97;;;;;;;;;;5079179;28;20452;-73
2022/01/21 04:03:26;;;;;;;3.33;1.00;;;;;;;;;;5079153;28;20946;-73
2022/01/21 04:05:57;;;;;;;6.00;1.17;;;;;;;;;;5079013;28;20487;-74
2022/01/21 04:08:25;;;;;;;3.10;1.27;;;;;;;;;;5079013;28;20599;-73
2022/01/21 04:10:53;;;;;;;5.70;1.50;;;;;;;;;;5073642;28;20469;-73
2022/01/21 04:13:22;;;;;;;2.50;1.83;;;;;;;;;;5065054;28;20461;-73
2022/01/21 04:15:51;;;;;;;10.20;2.80;;;;;;;;;;5060095;28;20603;-73
2022/01/21 04:18:22;;;;;;;7.53;2.13;;;;;;;;;;5059730;28;20568;-73
2022/01/21 04:20:51;;;;;;;3.57;1.73;;;;;;;;;;5064481;28;20539;-73
2022/01/21 04:23:20;;;;;;;9.60;2.03;;;;;;;;;;5080039;28;20483;-74
2022/01/21 04:25:49;;;;;;;2.40;1.33;;;;;;;;;;5079829;28;20468;-73
2022/01/21 04:28:18;;;;;;;9.43;2.23;;;;;;;;;;5078813;28;20587;-73
2022/01/21 04:30:46;;;;;;;9.50;2.20;;;;;;;;;;5079273;28;20458;-73
2022/01/21 04:33:14;;;;;;;6.53;1.37;;;;;;;;;;5079094;28;20573;-73
2022/01/21 04:35:43;;;;;;;9.53;1.50;;;;;;;;;;5079720;28;20489;-73
2022/01/21 04:38:16;;;;;;;3.33;1.90;;;;;;;;;;5079445;28;20582;-73
2022/01/21 04:40:49;;;;;;;3.47;1.50;;;;;;;;;;5079657;28;20464;-73
2022/01/21 04:48:50;;;;;;;3.27;1.80;;;;;;;;;;5058839;28;20226;-72
2022/01/21 04:51:25;;;;;;;5.80;1.60;;;;;;;;;;5058379;28;20465;-72
2022/01/21 04:53:53;;;;;;;3.93;1.17;;;;;;;;;;5057831;28;20913;-72
2022/01/21 04:56:23;;;;;;;5.70;2.37;;;;;;;;;;5057849;28;20607;-73
2022/01/21 04:58:53;;;;;;;5.63;2.17;;;;;;;;;;5057907;28;20479;-73
2022/01/21 05:01:21;;;;;;;6.80;2.17;;;;;;;;;;5058257;28;20546;-73
2022/01/21 05:03:49;;;;;;;11.63;1.77;;;;;;;;;;5058458;28;20481;-73
2022/01/21 05:06:19;;;;;;;3.30;1.33;;;;;;;;;;5058317;28;20964;-74
2022/01/21 05:08:53;;;;;;;12.53;2.40;;;;;;;;;;5058162;28;20507;-73
2022/01/21 05:14:46;;;;;;;8.60;2.13;;;;;;;;;;5054933;28;20294;-73
2022/01/21 05:17:19;;;;;;;4.70;2.37;;;;;;;;;;5055253;28;20542;-74
2022/01/21 05:19:58;;;;;;;6.33;1.83;;;;;;;;;;5059206;28;20462;-75
2022/01/21 05:22:28;;;;;;;5.60;2.30;;;;;;;;;;5058432;28;20547;-73
2022/01/21 05:28:18;;;;;;;8.07;2.87;;;;;;;;;;5042901;28;20940;-74
2022/01/21 05:30:46;;;;;;;5.43;2.30;;;;;;;;;;5058383;28;20457;-74
2022/01/21 05:33:14;;;;;;;7.63;1.80;;;;;;;;;;5058282;28;20556;-73
2022/01/21 05:35:42;;;;;;;3.40;1.10;;;;;;;;;;5058145;28;20507;-74
2022/01/21 05:38:13;;;;;;;2.17;1.30;;;;;;;;;;5058954;28;20461;-74
2022/01/21 05:40:42;;;;;;;10.73;2.03;;;;;;;;;;5058687;28;20557;-73
2022/01/21 05:43:11;;;;;;;6.90;1.97;;;;;;;;;;5061339;28;20457;-73
2022/01/21 05:48:31;;;;;;;7.70;2.50;;;;;;;;;;5061556;28;20476;-73
2022/01/21 05:51:01;;;;;;;6.93;2.30;;;;;;;;;;5062524;28;20456;-73
2022/01/21 05:53:33;;;;;;;1.63;1.13;;;;;;;;;;5062264;28;20457;-73
2022/01/21 05:56:02;;;;;;;4.50;3.23;;;;;;;;;;5062248;28;20466;-73
2022/01/21 05:58:30;;;;;;;3.70;0.80;;;;;;;;;;5062517;28;20765;-74
2022/01/21 06:00:58;;;;;;;2.83;1.53;;;;;;;;;;5061372;28;20465;-73
2022/01/21 06:03:26;;;;;;;3.53;0.80;;;;;;;;;;5061686;28;20556;-73
2022/01/21 06:05:54;;;;;;;7.67;2.13;;;;;;;;;;5061489;28;21037;-74
2022/01/21 06:08:21;;;;;;;5.70;1.87;;;;;;;;;;5060801;28;20480;-74
2022/01/21 06:10:51;;;;;;;4.87;1.60;;;;;;;;;;5061205;28;20457;-73
2022/01/21 06:13:19;;;;;;;5.47;2.07;;;;;;;;;;5061803;28;20453;-74
2022/01/21 06:15:51;;;;;;;4.03;1.50;;;;;;;;;;5061624;28;20453;-74
2022/01/21 06:18:19;;;;;;;14.90;3.30;;;;;;;;;;5061116;28;20476;-74
2022/01/21 06:20:50;;;;;;;9.80;1.20;;;;;;;;;;5061130;28;20472;-74
2022/01/21 06:23:18;;;;;;;8.63;1.77;;;;;;;;;;5064466;28;20461;-73
2022/01/21 06:25:46;;;;;;;17.63;1.87;;;;;;;;;;5080165;28;20471;-74
2022/01/21 06:28:15;;;;;;;5.67;2.63;;;;;;;;;;5080558;28;20485;-74
2022/01/21 06:30:55;;;;;;;6.07;2.83;;;;;;;;;;5079433;28;20475;-72
2022/01/21 06:33:23;;;;;;;6.00;1.37;;;;;;;;;;5080168;28;20457;-74
2022/01/21 06:35:52;;;;;;;7.33;1.20;;;;;;;;;;5079597;28;20539;-74
2022/01/21 06:38:21;;;;;;;6.27;2.70;;;;;;;;;;5079359;28;20448;-74
2022/01/21 06:40:49;;;;;;;6.17;2.03;;;;;;;;;;5079040;28;20947;-74
2022/01/21 06:43:18;;;;;;;8.90;2.27;;;;;;;;;;5078758;28;20460;-74
2022/01/21 06:46:07;;;;;;;10.50;1.57;;;;;;;;;;5067909;28;20465;-75
2022/01/21 06:48:36;;;;;;;5.17;2.20;;;;;;;;;;5057048;28;20482;-73
2022/01/21 06:51:08;;;;;;;8.80;2.43;;;;;;;;;;5062889;28;20483;-73
2022/01/21 06:53:35;;;;;;;8.07;2.90;;;;;;;;;;5061339;28;20456;-73
2022/01/21 06:56:04;;;;;;;2.80;1.23;;;;;;;;;;5057398;28;20461;-73
2022/01/21 06:58:39;;;;;;;13.30;2.97;;;;;;;;;;5064466;28;20456;-74
2022/01/21 07:01:10;;;;;;;7.27;1.20;;;;;;;;;;5059144;28;20453;-74
2022/01/21 07:03:38;;;;;;;2.57;1.30;;;;;;;;;;5064448;28;20461;-73
2022/01/21 07:06:11;;;;;;;7.37;4.50;;;;;;;;;;5073039;28;20449;-74
2022/01/21 07:08:39;;;;;;;6.80;2.50;;;;;;;;;;5077307;28;20488;-73
2022/01/21 07:11:07;;;;;;;8.63;2.77;;;;;;;;;;5077931;28;20464;-73
2022/01/21 07:13:37;;;;;;;9.53;2.87;;;;;;;;;;5070530;28;20472;-73
2022/01/21 07:16:09;;;;;;;6.10;1.57;;;;;;;;;;5068508;28;20795;-73
2022/01/21 07:18:37;;;;;;;4.23;2.57;;;;;;;;;;5072228;28;20453;-74
2022/01/21 07:21:05;;;;;;;7.90;4.60;;;;;;;;;;5056273;28;20480;-72
2022/01/21 07:23:33;;;;;;;2.90;1.20;;;;;;;;;;5057904;28;20485;-73
2022/01/21 07:26:05;;;;;;;14.03;2.73;;;;;;;;;;5057828;28;20546;-73
2022/01/21 07:28:33;;;;;;;4.50;2.20;;;;;;;;;;5063665;28;20912;-73
2022/01/21 07:31:05;;;;;;;4.70;1.80;;;;;;;;;;5069361;28;20478;-73
2022/01/21 07:33:33;;;;;;;3.53;1.27;;;;;;;;;;5056883;28;20692;-74
2022/01/21 07:36:00;;;;;;;9.13;3.27;;;;;;;;;;5064647;28;20797;-73
2022/01/21 07:38:29;;;;;;;4.73;1.87;;;;;;;;;;5071805;28;20462;-73
2022/01/21 07:41:01;;;;;;;19.50;3.37;;;;;;;;;;5075845;28;20473;-73
2022/01/21 07:43:31;;;;;;;10.50;3.07;;;;;;;;;;5068848;28;20495;-73
2022/01/21 07:45:59;;;;;;;7.17;3.77;;;;;;;;;;5062357;28;20461;-73
2022/01/21 07:48:31;;;;;;;7.03;3.57;;;;;;;;;;5065136;28;20486;-73
2022/01/21 07:51:01;;;;;;;3.23;2.20;;;;;;;;;;5057736;28;20461;-73
2022/01/21 07:53:28;;;;;;;7.07;3.23;;;;;;;;;;5063113;28;20510;-73
2022/01/21 07:55:56;;;;;;;4.13;1.90;;;;;;;;;;5073768;28;20456;-73
2022/01/21 07:58:25;;;;;;;4.83;2.97;;;;;;;;;;5074345;28;20460;-73
2022/01/21 08:00:53;;;;;;;5.03;2.60;;;;;;;;;;5060734;28;20924;-73
2022/01/21 08:03:24;;;;;;;7.73;2.50;;;;;;;;;;5070265;28;20452;-73
2022/01/21 08:05:56;;;;;;;7.63;2.30;;;;;;;;;;5075138;28;20478;-73
2022/01/21 08:08:26;;;;;;;3.10;1.40;;;;;;;;;;5072724;28;20497;-73
2022/01/21 08:10:54;;;;;;;8.57;2.97;;;;;;;;;;5069474;28;20769;-74
2022/01/21 08:13:22;;;;;;;9.33;2.87;;;;;;;;;;5066321;28;20881;-74
2022/01/21 08:15:51;;;;;;;4.93;1.47;;;;;;;;;;5055769;28;20580;-75
2022/01/21 08:18:19;;;;;;;7.07;3.83;;;;;;;;;;5063291;28;20445;-75
2022/01/21 08:20:48;;;;;;;5.13;2.53;;;;;;;;;;5056098;28;20632;-75
2022/01/21 08:23:18;;;;;;;5.60;3.23;;;;;;;;;;5055561;28;20548;-75
2022/01/21 08:25:46;;;;;;;9.17;4.90;;;;;;;;;;5054479;28;20449;-74
2022/01/21 08:28:21;;;;;;;3.67;1.50;;;;;;;;;;5062163;28;20499;-74
2022/01/21 08:30:49;;;;;;;11.30;5.63;;;;;;;;;;5074465;28;20546;-74
2022/01/21 08:33:17;;;;;;;10.50;5.27;;;;;;;;;;5073818;28;20744;-73
2022/01/21 08:35:45;;;;;;;9.70;5.10;;;;;;;;;;5063865;28;20461;-74
2022/01/21 08:41:21;;;;;;;3.90;2.10;;;;;;;;;;5067937;28;20460;-74
2022/01/21 08:43:54;;;;;;;9.93;3.70;;;;;;;;;;5074669;28;20440;-73
2022/01/21 08:46:22;;;;;;;4.97;3.00;;;;;;;;;;5057101;28;20457;-73
2022/01/21 08:48:51;;;;;;;3.70;2.10;;;;;;;;;;5074807;28;20503;-74
2022/01/21 08:51:25;;;;;;;4.73;1.80;;;;;;;;;;5074889;28;20975;-73
2022/01/21 08:53:54;;;;;;;11.23;2.43;;;;;;;;;;5060542;28;20523;-73
2022/01/21 08:56:23;;;;;;;4.60;1.47;;;;;;;;;;5074144;28;20471;-72
2022/01/21 08:59:04;;;;;;;5.10;2.70;;;;;;;;;;5059890;28;20489;-73
2022/01/21 09:01:35;;;;;;;6.83;3.87;;;;;;;;;;5070027;28;20463;-72
2022/01/21 09:04:02;;;;;;;16.33;6.20;;;;;;;;;;5074314;28;20785;-72
2022/01/21 09:06:30;;;;;;;7.47;3.93;;;;;;;;;;5073490;28;20471;-74
2022/01/21 09:09:01;;;;;;;7.20;3.47;;;;;;;;;;5075051;28;20507;-73
2022/01/21 09:11:33;;;;;;;3.67;2.23;;;;;;;;;;5075114;28;20755;-72
2022/01/21 09:14:02;;;;;;;8.73;1.80;;;;;;;;;;5075452;28;20763;-73
2022/01/21 09:16:31;;;;;;;4.63;2.47;;;;;;;;;;5069492;28;20523;-73
2022/01/21 09:19:03;;;;;;;4.50;1.90;;;;;;;;;;5057484;28;20798;-73
2022/01/21 09:21:32;;;;;;;3.20;1.60;;;;;;;;;;5058035;28;20462;-74
2022/01/21 09:24:00;;;;;;;4.97;2.80;;;;;;;;;;5081017;28;20486;-75
2022/01/21 09:26:28;;;;;;;5.63;2.40;;;;;;;;;;5068352;28;20465;-73
2022/01/21 09:29:00;;;;;;;5.27;2.13;;;;;;;;;;5062021;28;20760;-74
2022/01/21 09:31:43;;;;;;;6.90;4.03;;;;;;;;;;5063783;28;20471;-74
2022/01/21 09:34:12;;;;;;;3.00;1.57;;;;;;;;;;5062532;28;20520;-74
2022/01/21 09:36:49;;;;;;;5.47;1.93;;;;;;;;;;5060035;28;20453;-74
2022/01/21 09:39:19;;;;;;;5.90;2.30;;;;;;;;;;5060082;28;20441;-74
2022/01/21 09:41:48;;;;;;;3.70;1.63;;;;;;;;;;5075690;28;20557;-75
2022/01/21 09:44:21;;;;;;;5.83;2.80;;;;;;;;;;5059127;28;20464;-75
2022/01/21 09:46:53;;;;;;;3.23;1.97;;;;;;;;;;5060079;28;20548;-73
2022/01/21 09:49:28;;;;;;;7.00;2.27;;;;;;;;;;5062132;28;20552;-74
2022/01/21 09:52:05;;;;;;;8.03;3.80;;;;;;;;;;5075372;28;20459;-74
2022/01/21 09:54:35;;;;;;;14.20;1.70;;;;;;;;;;5077102;28;20484;-73
2022/01/21 09:57:04;;;;;;;5.73;3.90;;;;;;;;;;5084888;28;20540;-74
2022/01/21 09:59:39;;;;;;;7.40;3.17;;;;;;;;;;5080747;28;21113;-74
2022/01/21 10:02:13;;;;;;;6.33;3.33;;;;;;;;;;5070253;28;20885;-73
2022/01/21 10:04:44;;;;;;;3.13;1.60;;;;;;;;;;5065186;28;20496;-75
2022/01/21 10:07:15;;;;;;;2.73;1.47;;;;;;;;;;5066748;28;21061;-74
2022/01/21 10:09:48;;;;;;;5.13;2.73;;;;;;;;;;5069291;28;20481;-74
2022/01/21 10:12:27;;;;;;;3.53;1.90;;;;;;;;;;5062939;28;20468;-74
2022/01/21 10:18:20;;;;;;;2.53;1.57;;;;;;;;;;5082094;28;20452;-73
2022/01/21 10:21:12;;;;;;;11.20;3.27;;;;;;;;;;5071125;28;20497;-73
2022/01/21 10:23:41;;;;;;;5.10;2.57;;;;;;;;;;5069677;28;20464;-73
2022/01/21 10:26:11;;;;;;;4.13;2.93;;;;;;;;;;5061216;28;20481;-74
2022/01/21 10:28:44;;;;;;;8.53;2.80;;;;;;;;;;5073308;28;20495;-74
2022/01/21 10:31:16;;;;;;;6.63;3.37;;;;;;;;;;5058564;28;20487;-74
2022/01/21 10:34:00;;;;;;;4.23;2.27;;;;;;;;;;5065689;28;20484;-73
2022/01/21 10:36:34;;;;;;;3.43;2.30;;;;;;;;;;5065010;28;20460;-74
2022/01/21 10:39:10;;;;;;;7.47;4.27;;;;;;;;;;5065637;28;20552;-76
2022/01/21 10:41:58;;;;;;;8.40;3.50;;;;;;;;;;5064179;28;20457;-75
2022/01/21 10:44:36;;;;;;;7.20;3.20;;;;;;;;;;5061883;28;20816;-74
2022/01/21 10:47:08;;;;;;;2.57;1.53;;;;;;;;;;5068050;28;20945;-74
2022/01/21 10:49:39;;;;;;;5.77;2.63;;;;;;;;;;5075584;28;20495;-74
2022/01/21 10:52:09;;;;;;;5.17;2.87;;;;;;;;;;5072108;28;20572;-74
2022/01/21 10:54:51;;;;;;;1.93;1.17;;;;;;;;;;5078771;28;20841;-74
2022/01/21 10:57:22;;;;;;;5.17;2.57;;;;;;;;;;5078889;28;20461;-75
2022/01/21 10:59:51;;;;;;;6.37;1.73;;;;;;;;;;5058761;28;20458;-73
2022/01/21 11:02:37;;;;;;;4.97;1.83;;;;;;;;;;5058072;28;20628;-74
2022/01/21 11:08:31;;;;;;;5.30;2.30;;;;;;;;;;5072682;28;20536;-73
2022/01/21 11:11:11;;;;;;;5.37;2.00;;;;;;;;;;5067942;28;20492;-75
2022/01/21 11:13:48;;;;;;;6.47;2.97;;;;;;;;;;5068416;28;20453;-72
2022/01/21 11:16:29;;;;;;;4.53;2.13;;;;;;;;;;5071490;28;21130;-73
2022/01/21 11:19:09;;;;;;;6.30;3.00;;;;;;;;;;5065153;28;20452;-75
2022/01/21 11:21:41;;;;;;;4.47;1.93;;;;;;;;;;5077886;28;20473;-74
2022/01/21 11:24:27;;;;;;;8.23;3.97;;;;;;;;;;5073415;28;20548;-76
2022/01/21 11:27:22;;;;;;;7.03;2.40;;;;;;;;;;5065979;28;20481;-75
2022/01/21 11:29:50;;;;;;;3.00;1.23;;;;;;;;;;5058081;28;20771;-74
2022/01/21 11:32:22;;;;;;;3.90;2.40;;;;;;;;;;5074786;28;20457;-75
2022/01/21 11:34:53;;;;;;;3.10;1.90;;;;;;;;;;5069502;28;20460;-75
2022/01/21 11:37:23;;;;;;;5.33;3.70;;;;;;;;;;5061875;28;20461;-75
2022/01/21 11:40:08;;;;;;;6.70;4.37;;;;;;;;;;5059417;28;20453;-77
2022/01/21 11:42:40;;;;;;;5.70;2.70;;;;;;;;;;5056330;28;20462;-74
2022/01/21 11:45:20;;;;;;;5.30;2.83;;;;;;;;;;5057075;28;20879;-74
2022/01/21 11:48:49;;;;;;;7.60;2.13;;;;;;;;;;5059616;28;20470;-74
2022/01/21 11:51:01;;;;;;;5.57;3.13;;;;;;;;;;5055786;28;20485;-74
2022/01/21 11:53:47;;;;;;;3.40;2.30;;;;;;;;;;5058188;28;21396;-74
2022/01/21 11:56:32;;;;;;;5.13;2.70;;;;;;;;;;5057389;28;20461;-74
2022/01/21 11:59:09;;;;;;;6.43;4.10;;;;;;;;;;5057343;28;20471;-74
2022/01/21 12:01:50;;;;;;;4.80;1.90;;;;;;;;;;5057762;28;20472;-74
2022/01/21 12:04:51;;;;;;;6.50;5.33;;;;;;;;;;5059115;28;20453;-77
2022/01/21 12:07:40;;;;;;;13.47;6.80;;;;;;;;;;5066474;28;20450;-74
2022/01/21 12:10:12;;;;;;;6.90;3.00;;;;;;;;;;5057251;28;20493;-74
2022/01/21 12:13:01;;;;;;;4.33;2.57;;;;;;;;;;5058750;28;20464;-74
2022/01/21 12:19:09;;;;;;;5.50;3.07;;;;;;;;;;5046021;28;20456;-73
2022/01/21 12:21:38;;;;;;;3.57;2.50;;;;;;;;;;5068052;28;20454;-75
2022/01/21 12:24:08;;;;;;;3.20;2.10;;;;;;;;;;5055475;28;20465;-75
2022/01/21 12:26:40;;;;;;;6.33;2.97;;;;;;;;;;5058461;28;20561;-75
2022/01/21 12:29:25;;;;;;;3.93;1.70;;;;;;;;;;5056630;28;21066;-75
2022/01/21 12:32:12;;;;;;;4.97;2.83;;;;;;;;;;5060788;28;20522;-74
2022/01/21 12:39:05;;;;;;;8.43;2.63;;;;;;;;;;5052579;28;20918;-74
2022/01/21 12:41:00;;;;;;;8.20;3.00;;;;;;;;;;5065688;28;20926;-74
2022/01/21 12:46:53;;;;;;;5.23;2.60;;;;;;;;;;5069660;28;20558;-75
2022/01/21 12:53:14;;;;;;;16.37;7.63;;;;;;;;;;5000062;28;20460;-74
2022/01/21 12:55:59;;;;;;;4.40;2.03;;;;;;;;;;5072103;28;20528;-75
2022/01/21 13:04:52;;;;;;;4.00;2.37;;;;;;;;;;5076289;28;20452;-75
2022/01/21 13:07:52;;;;;;;6.37;2.50;;;;;;;;;;5064680;28;20551;-73
2022/01/21 13:10:25;;;;;;;9.17;4.50;;;;;;;;;;5066456;28;20476;-75
2022/01/21 13:18:59;;;;;;;7.47;3.93;;;;;;;;;;5015419;28;20496;-74
2022/01/21 13:21:40;;;;;;;3.60;1.50;;;;;;;;;;5025789;28;20884;-74
2022/01/21 13:24:25;;;;;;;4.83;2.53;;;;;;;;;;5065055;28;20461;-76
2022/01/21 13:27:01;;;;;;;4.80;2.50;;;;;;;;;;5066488;28;20526;-76
2022/01/21 13:29:52;;;;;;;13.00;3.97;;;;;;;;;;5067049;28;20601;-73
2022/01/21 13:32:24;;;;;;;8.23;3.20;;;;;;;;;;5076903;28;20449;-74
2022/01/21 13:35:07;;;;;;;5.37;1.80;;;;;;;;;;5067219;28;20921;-74
2022/01/21 13:40:56;;;;;;;9.47;2.30;;;;;;;;;;5000212;28;20439;-74
2022/01/21 13:43:30;;;;;;;3.67;1.93;;;;;;;;;;5057196;28;20814;-75
2022/01/21 13:46:02;;;;;;;3.70;2.67;;;;;;;;;;5070739;28;20452;-74
2022/01/21 13:48:40;;;;;;;10.07;1.20;;;;;;;;;;5067104;28;20512;-75
2022/01/21 13:54:52;;;;;;;6.70;1.90;;;;;;;;;;5056442;28;20445;-74
2022/01/21 13:57:41;;;;;;;11.43;2.00;;;;;;;;;;5069065;28;20467;-74
2022/01/21 14:00:16;;;;;;;5.27;2.77;;;;;;;;;;5074884;28;21050;-74
2022/01/21 14:03:00;;;;;;;;;;;;;;;;;;;;;
2022/01/21 14:08:45;;;;;;;4.30;1.50;;;;;;;;;;5046281;28;20536;-72
2022/01/21 14:11:15;;;;;;;4.90;2.33;;;;;;;;;;5071556;28;20476;-72
2022/01/21 14:13:47;;;;;;;8.77;2.50;;;;;;;;;;5076685;28;20942;-75
2022/01/21 14:16:21;;;;;;;6.97;1.33;;;;;;;;;;5062252;28;20453;-73
2022/01/21 14:18:59;;;;;;;6.47;2.60;;;;;;;;;;5061835;28;20468;-74
2022/01/21 14:21:36;;;;;;;14.47;5.10;;;;;;;;;;5060965;28;20532;-73
2022/01/21 14:24:27;;;;;;;4.10;2.50;;;;;;;;;;5074153;28;20543;-73
2022/01/21 14:26:57;;;;;;;8.17;3.23;;;;;;;;;;5076792;28;20449;-73
2022/01/21 14:29:38;;;;;;;9.40;2.63;;;;;;;;;;5065841;28;20475;-74
2022/01/21 14:32:37;;;;;;;7.97;3.60;;;;;;;;;;5075849;28;20484;-73
2022/01/21 14:35:12;;;;;;;4.40;3.23;;;;;;;;;;5065827;28;20504;-73
2022/01/21 14:37:58;;;;;;;9.80;4.83;;;;;;;;;;5064158;28;20876;-74
2022/01/21 14:43:41;;;;;;;11.63;2.20;;;;;;;;;;5072025;28;20493;-75
2022/01/21 14:46:12;;;;;;;12.40;2.33;;;;;;;;;;5073122;28;20448;-74
2022/01/21 14:48:49;;;;;;;6.23;3.33;;;;;;;;;;5060899;28;20453;-74
2022/01/21 14:51:19;;;;;;;8.10;3.40;;;;;;;;;;5062767;28;20480;-73
2022/01/21 14:53:55;;;;;;;4.30;2.93;;;;;;;;;;5067262;28;20476;-72
2022/01/21 15:00:16;;;;;;;5.73;3.20;;;;;;;;;;5055232;28;20515;-75
2022/01/21 15:02:53;;;;;;;5.47;2.20;;;;;;;;;;5039776;28;20732;-74
2022/01/21 15:05:29;;;;;;;12.50;3.90;;;;;;;;;;5059931;28;20534;-74
2022/01/21 15:07:59;;;;;;;8.97;3.73;;;;;;;;;;5065268;28;20456;-73
2022/01/21 15:10:39;;;;;;;14.70;4.90;;;;;;;;;;5063294;28;20505;-74
2022/01/21 15:16:11;;;;;;;5.30;2.60;;;;;;;;;;5063685;28;20499;-74
2022/01/21 15:18:43;;;;;;;7.10;3.50;;;;;;;;;;5068417;28;20864;-74
2022/01/21 15:21:24;;;;;;;3.30;1.83;;;;;;;;;;5058465;28;20498;-75
2022/01/21 15:24:02;;;;;;;8.40;3.03;;;;;;;;;;5066410;28;20931;-74
2022/01/21 15:26:35;;;;;;;8.77;2.10;;;;;;;;;;5064117;28;20453;-75
2022/01/21 15:29:07;;;;;;;7.67;2.30;;;;;;;;;;5061947;28;20748;-73
2022/01/21 15:31:36;;;;;;;10.00;2.87;;;;;;;;;;5076692;28;20508;-73
2022/01/21 15:34:04;;;;;;;9.60;3.30;;;;;;;;;;5068854;28;20440;-74
2022/01/21 15:36:40;;;;;;;7.30;3.50;;;;;;;;;;5068728;28;20606;-74
2022/01/21 15:39:10;;;;;;;6.15;3.75;;;;;;;;;;5061072;28;20453;-74
2022/01/21 15:41:42;;;;;;;5.63;3.00;;;;;;;;;;5069923;28;20297;-74
2022/01/21 15:44:39;;;;;;;21.23;6.30;;;;;;;;;;5063555;28;20851;-74
2022/01/21 15:47:17;;;;;;;9.00;4.33;;;;;;;;;;5057218;28;20454;-74
2022/01/21 15:49:46;;;;;;;18.93;6.00;;;;;;;;;;5055795;28;20452;-74
2022/01/21 15:52:21;;;;;;;4.20;2.50;;;;;;;;;;5003477;28;20646;-74
2022/01/21 15:54:49;;;;;;;12.50;4.40;;;;;;;;;;5014614;28;20732;-74
2022/01/21 15:57:32;;;;;;;10.73;4.13;;;;;;;;;;5002642;28;20471;-72
2022/01/21 16:00:05;;;;;;;10.90;3.10;;;;;;;;;;5011028;28;20558;-72
2022/01/21 16:02:38;;;;;;;7.37;3.80;;;;;;;;;;5013680;28;20470;-73
2022/01/21 16:05:17;;;;;;;9.87;3.27;;;;;;;;;;5015234;28;20474;-73
2022/01/21 16:07:55;;;;;;;18.40;5.60;;;;;;;;;;5012931;28;20796;-75
2022/01/21 16:10:35;;;;;;;5.57;3.33;;;;;;;;;;5015571;28;20465;-75
2022/01/21 16:13:08;;;;;;;6.50;3.83;;;;;;;;;;5012910;28;20455;-76
2022/01/21 16:15:58;;;;;;;11.47;4.53;;;;;;;;;;5014746;28;20755;-73
2022/01/21 16:18:39;;;;;;;;;;;;;;;;;;;;;
2022/01/21 16:21:27;;;;;;;9.83;4.27;;;;;;;;;;5015868;28;20474;-73
2022/01/21 16:26:52;;;;;;;12.40;4.10;;;;;;;;;;5012347;28;20443;-74
2022/01/21 16:29:45;;;;;;;;;;;;;;;;;;;;;
2022/01/21 16:32:40;;;;;;;7.07;3.70;;;;;;;;;;5012752;28;20498;-75
2022/01/21 16:35:19;;;;;;;9.10;4.23;;;;;;;;;;5010852;28;20455;-74
2022/01/21 16:37:50;;;;;;;15.33;4.83;;;;;;;;;;5014076;28;20455;-74
2022/01/21 16:43:12;;;;;;;12.30;3.33;;;;;;;;;;5011521;28;20456;-74
2022/01/21 16:45:44;;;;;;;12.40;4.20;;;;;;;;;;5013478;28;20811;-74
2022/01/21 16:48:13;;;;;;;13.33;3.90;;;;;;;;;;5004530;28;20514;-73
2022/01/21 16:50:45;;;;;;;11.10;5.40;;;;;;;;;;5013500;28;20470;-73
2022/01/21 16:53:16;;;;;;;11.10;3.13;;;;;;;;;;5025155;28;20546;-74
2022/01/21 16:55:44;;;;;;;7.03;2.80;;;;;;;;;;5012821;28;20466;-73
2022/01/21 17:01:19;;;;;;;10.70;5.20;;;;;;;;;;5005508;28;20448;-74
2022/01/21 17:03:59;;;;;;;16.37;4.97;;;;;;;;;;5009240;28;20548;-75
2022/01/21 17:06:34;;;;;;;18.40;4.43;;;;;;;;;;5012842;28;20505;-75
2022/01/21 17:09:20;;;;;;;8.77;3.20;;;;;;;;;;5014262;28;20458;-74
2022/01/21 17:12:16;;;;;;;;;;;;;;;;;;;;;
2022/01/21 17:15:02;;;;;;;11.13;3.77;;;;;;;;;;5007184;28;20501;-72